Portada
METAR-TAF:

METAR-TAF

Aeroports :

Enfidha-Hammamet

Hammamet, Tunísia

latitud: 36-04-34N, longitud: 10-26-19E, altitud: 6 m

Observació

L'informe es va fer fa 36 minuts, a les 23:30 UTC
Vent 4 kt del Oest, variant entre Oest/Sud-Oest i Nord-Oest
Temperatura 24°C
Humitat 83%
Pressió 1016 hPa
Visibilitat 10 km o més
sense núvols per sota de 1500 mi sense presència de cumulonimbus.

METAR: DTNH 182330Z 27004KT 250V320 CAVOK 24/21 Q1016

Hora: 01:06 (00:06 UTC)

Pronòstic

L'informe es va fer fa 1 hora i 6 minuts, a les 23:00 UTC
Pronòstic vàlid del 19 a les 00 UTC al 19 a les 24 UTC
Vent 2 kt amb direcció variable
Visibilitat 10 km o més
sense núvols per sota de 1500 mi sense presència de cumulonimbus.
Evolucionant progressivament
l' 19 a les 10 UTC al 19 a les 12 UTC
Vent 10 kt del Est
Evolucionant progressivament
l' 19 a les 19 UTC al 19 a les 21 UTC
Vent 2 kt amb direcció variable

TAF: DTNH 182300Z 1900/1924 VRB02KT CAVOK BECMG 1910/1912 10010KT BECMG 1919/1921 VRB02KT

Observacions i pronòstics meteorològics de més de 4000 aeroports (METAR i TAF).

Les estacions disponibles són els punts grocs i vermells al mapa.

Posi el ratolí al punt desitjat per veure el nom de l'estació.

Feu clic per veure les observacions i els pronòstics meteorològics.

Per canviar el mapa: feu clic els botons verds amb una creu de color negre per apropar; al botó verd amb un guió per allunyar la imatge; o en les fletxes verdes per a mapes adjacents.


METAR-TAF: